createdAt,value
2017-03-11T00:00:50.743Z,1019.02
2017-03-11T00:01:50.797Z,1019.02
2017-03-11T00:02:50.803Z,1019.03
2017-03-11T00:03:50.760Z,1019.01
2017-03-11T00:04:50.762Z,1019.02
2017-03-11T00:05:50.769Z,1019.01
2017-03-11T00:06:50.772Z,1019.07
2017-03-11T00:07:50.778Z,1019.05
2017-03-11T00:08:50.784Z,1019.06
2017-03-11T00:09:50.787Z,1019.07
2017-03-11T00:10:50.793Z,1019.05
2017-03-11T00:11:50.796Z,1019.04
2017-03-11T00:12:50.849Z,1019.05
2017-03-11T00:13:50.854Z,1019.04
2017-03-11T00:14:50.861Z,1019.06
2017-03-11T00:15:50.817Z,1019.03
2017-03-11T00:16:50.821Z,1019.04
2017-03-11T00:17:50.874Z,1019.01
2017-03-11T00:18:52.331Z,1019.03
2017-03-11T00:19:50.839Z,1019.06
2017-03-11T00:20:50.840Z,1019.07
2017-03-11T00:21:50.845Z,1019.1
2017-03-11T00:22:50.896Z,1019.09
2017-03-11T00:23:50.901Z,1019.08
2017-03-11T00:24:50.907Z,1019.1
2017-03-11T00:25:50.864Z,1019.13
2017-03-11T00:26:50.868Z,1019.17
2017-03-11T00:27:50.874Z,1019.19
2017-03-11T00:28:50.927Z,1019.2
2017-03-11T00:29:50.882Z,1019.18
2017-03-11T00:30:50.888Z,1019.21
2017-03-11T00:31:50.896Z,1019.22
2017-03-11T00:32:50.946Z,1019.17
2017-03-11T00:33:50.903Z,1019.18
2017-03-11T00:34:50.956Z,1019.21
2017-03-11T00:35:50.913Z,1019.23
2017-03-11T00:36:50.915Z,1019.22
2017-03-11T00:37:50.968Z,1019.22
2017-03-11T00:38:50.927Z,1019.24
2017-03-11T00:39:50.932Z,1019.18
2017-03-11T00:40:50.939Z,1019.25
2017-03-11T00:41:50.939Z,1019.23
2017-03-11T00:42:51.022Z,1019.22
2017-03-11T00:43:50.949Z,1019.23
2017-03-11T00:44:51.005Z,1019.23
2017-03-11T00:45:50.962Z,1019.24
2017-03-11T00:46:50.965Z,1019.23
2017-03-11T00:47:50.969Z,1019.19
2017-03-11T00:48:51.023Z,1019.23
2017-03-11T00:49:51.029Z,1019.2
2017-03-11T00:50:50.984Z,1019.22
2017-03-11T00:51:50.988Z,1019.23
2017-03-11T00:52:51.042Z,1019.24
2017-03-11T00:53:50.997Z,1019.21
2017-03-11T00:54:51.000Z,1019.2
2017-03-11T00:55:51.008Z,1019.17
2017-03-11T00:56:51.013Z,1019.15
2017-03-11T00:57:51.017Z,1019.12
2017-03-11T00:58:51.022Z,1019.08
2017-03-11T00:59:51.027Z,1019.06
2017-03-11T01:00:51.078Z,1019.09
2017-03-11T01:01:51.037Z,1019.11
2017-03-11T01:02:51.040Z,1019.08
2017-03-11T01:03:51.044Z,1019.09
2017-03-11T01:04:51.051Z,1019.09
2017-03-11T01:05:51.103Z,1019.08
2017-03-11T01:06:51.058Z,1019.06
2017-03-11T01:07:51.061Z,1019.09
2017-03-11T01:08:51.069Z,1019.06
2017-03-11T01:09:51.072Z,1019.08
2017-03-11T01:10:51.076Z,1019.05
2017-03-11T01:11:51.077Z,1019.05
2017-03-11T01:12:51.083Z,1019.06
2017-03-11T01:13:51.134Z,1019.06
2017-03-11T01:14:51.090Z,1019.04
2017-03-11T01:15:51.094Z,1019.04
2017-03-11T01:16:51.185Z,1018.99
2017-03-11T01:17:51.102Z,1018.97
2017-03-11T01:18:51.108Z,1018.88
2017-03-11T01:19:51.111Z,1018.85
2017-03-11T01:20:51.164Z,1018.83
2017-03-11T01:21:51.119Z,1018.81
2017-03-11T01:22:51.122Z,1018.77
2017-03-11T01:23:51.127Z,1018.77
2017-03-11T01:24:51.178Z,1018.78
2017-03-11T01:25:51.133Z,1018.76
2017-03-11T01:26:51.138Z,1018.73
2017-03-11T01:27:51.143Z,1018.7
2017-03-11T01:28:51.147Z,1018.65
2017-03-11T01:29:51.149Z,1018.65
2017-03-11T01:30:51.205Z,1018.66
2017-03-11T01:31:51.160Z,1018.61
2017-03-11T01:32:51.211Z,1018.61
2017-03-11T01:33:51.170Z,1018.61
2017-03-11T01:34:51.220Z,1018.58
2017-03-11T01:35:51.177Z,1018.54
2017-03-11T01:36:51.230Z,1018.51
2017-03-11T01:37:51.187Z,1018.52
2017-03-11T01:38:51.192Z,1018.47
2017-03-11T01:39:51.243Z,1018.48
2017-03-11T01:40:51.207Z,1018.45
2017-03-11T01:41:51.202Z,1018.46
2017-03-11T01:42:51.205Z,1018.43
2017-03-11T01:43:51.260Z,1018.38
2017-03-11T01:44:51.216Z,1018.37
2017-03-11T01:45:51.246Z,1018.3
2017-03-11T01:46:51.227Z,1018.31
2017-03-11T01:47:51.279Z,1018.28
2017-03-11T01:48:51.232Z,1018.21
2017-03-11T01:49:51.288Z,1018.23
2017-03-11T01:50:51.243Z,1018.19
2017-03-11T01:51:51.297Z,1018.19
2017-03-11T01:52:51.303Z,1018.16
2017-03-11T01:53:51.259Z,1018.13
2017-03-11T01:54:51.262Z,1018.15
2017-03-11T01:55:51.267Z,1018.1
2017-03-11T01:56:51.321Z,1018.12
2017-03-11T01:57:51.276Z,1018.12
2017-03-11T01:58:51.281Z,1018.12
2017-03-11T01:59:51.285Z,1018.13
2017-03-11T02:00:51.290Z,1018.07
2017-03-11T02:01:51.292Z,1018.09
2017-03-11T02:02:51.298Z,1018.05
2017-03-11T02:03:51.301Z,1018.03
2017-03-11T02:04:51.304Z,1017.99
2017-03-11T02:05:51.311Z,1017.98
2017-03-11T02:06:51.316Z,1017.96
2017-03-11T02:07:51.322Z,1017.95
2017-03-11T02:08:51.327Z,1017.92
2017-03-11T02:09:51.329Z,1017.97
2017-03-11T02:10:51.383Z,1017.98
2017-03-11T02:11:51.387Z,1018.03
2017-03-11T02:12:51.344Z,1018.01
2017-03-11T02:13:51.349Z,1018.05
2017-03-11T02:14:51.353Z,1018.02
2017-03-11T02:15:51.357Z,1017.99
2017-03-11T02:16:51.361Z,1017.99
2017-03-11T02:17:51.367Z,1017.97
2017-03-11T02:18:51.373Z,1017.96
2017-03-11T02:19:51.380Z,1017.97
2017-03-11T02:20:51.382Z,1017.93
2017-03-11T02:21:51.384Z,1017.95
2017-03-11T02:22:51.391Z,1017.95
2017-03-11T02:23:51.395Z,1017.88
2017-03-11T02:24:51.402Z,1017.89
2017-03-11T02:25:51.406Z,1017.85
2017-03-11T02:26:51.409Z,1017.85
2017-03-11T02:27:51.411Z,1017.86
2017-03-11T02:28:51.415Z,1017.78
2017-03-11T02:29:51.471Z,1017.81
2017-03-11T02:30:51.427Z,1017.82
2017-03-11T02:31:51.430Z,1017.81
2017-03-11T02:32:51.484Z,1017.76
2017-03-11T02:33:51.438Z,1017.71
2017-03-11T02:34:51.494Z,1017.7
2017-03-11T02:35:51.449Z,1017.68
2017-03-11T02:36:51.455Z,1017.7
2017-03-11T02:37:51.506Z,1017.68
2017-03-11T02:38:51.509Z,1017.67
2017-03-11T02:39:51.515Z,1017.65
2017-03-11T02:40:51.519Z,1017.57
2017-03-11T02:41:51.474Z,1017.6
2017-03-11T02:42:51.530Z,1017.59
2017-03-11T02:43:51.483Z,1017.54
2017-03-11T02:44:51.488Z,1017.57
2017-03-11T02:45:51.492Z,1017.6
2017-03-11T02:46:51.497Z,1017.56
2017-03-11T02:47:51.551Z,1017.56
2017-03-11T02:48:51.554Z,1017.57
2017-03-11T02:49:51.510Z,1017.52
2017-03-11T02:50:51.515Z,1017.52
2017-03-11T02:51:51.568Z,1017.46
2017-03-11T02:52:51.574Z,1017.45
2017-03-11T02:53:51.527Z,1017.39
2017-03-11T02:54:51.584Z,1017.38
2017-03-11T02:55:51.537Z,1017.41
2017-03-11T02:56:51.539Z,1017.45
2017-03-11T02:57:51.845Z,1017.44
2017-03-11T02:58:51.550Z,1017.41
2017-03-11T02:59:51.604Z,1017.44
2017-03-11T03:00:51.558Z,1017.49
2017-03-11T03:01:51.588Z,1017.47
2017-03-11T03:02:51.567Z,1017.45
2017-03-11T03:03:51.573Z,1017.45
2017-03-11T03:04:51.576Z,1017.43
2017-03-11T03:05:51.581Z,1017.46
2017-03-11T03:06:51.634Z,1017.47
2017-03-11T03:07:51.590Z,1017.41
2017-03-11T03:08:51.594Z,1017.38
2017-03-11T03:09:51.649Z,1017.39
2017-03-11T03:10:51.654Z,1017.39
2017-03-11T03:11:51.658Z,1017.39
2017-03-11T03:12:51.611Z,1017.34
2017-03-11T03:13:51.667Z,1017.38
2017-03-11T03:14:51.621Z,1017.32
2017-03-11T03:15:51.675Z,1017.31
2017-03-11T03:16:51.632Z,1017.35
2017-03-11T03:17:51.633Z,1017.34
2017-03-11T03:18:51.644Z,1017.34
2017-03-11T03:19:51.645Z,1017.38
2017-03-11T03:20:51.654Z,1017.35
2017-03-11T03:21:51.653Z,1017.35
2017-03-11T03:22:51.659Z,1017.34
2017-03-11T03:23:51.661Z,1017.34
2017-03-11T03:24:51.717Z,1017.35
2017-03-11T03:25:51.720Z,1017.31
2017-03-11T03:26:51.675Z,1017.36
2017-03-11T03:27:51.730Z,1017.41
2017-03-11T03:28:51.683Z,1017.42
2017-03-11T03:29:51.690Z,1017.45
2017-03-11T03:30:51.697Z,1017.46
2017-03-11T03:31:51.698Z,1017.47
2017-03-11T03:32:51.702Z,1017.45
2017-03-11T03:33:51.707Z,1017.45
2017-03-11T03:34:51.712Z,1017.45
2017-03-11T03:35:51.717Z,1017.47
2017-03-11T03:36:51.723Z,1017.52
2017-03-11T03:37:51.725Z,1017.47
2017-03-11T03:38:51.780Z,1017.52
2017-03-11T03:39:51.783Z,1017.46
2017-03-11T03:40:51.790Z,1017.47
2017-03-11T03:41:51.744Z,1017.51
2017-03-11T03:42:51.748Z,1017.47
2017-03-11T03:43:53.103Z,1017.46
2017-03-11T03:44:51.757Z,1017.52
2017-03-11T03:45:51.763Z,1017.56
2017-03-11T03:46:51.816Z,1017.62
2017-03-11T03:47:51.820Z,1017.57
2017-03-11T03:48:51.824Z,1017.49
2017-03-11T03:49:51.830Z,1017.5
2017-03-11T03:50:51.784Z,1017.45
2017-03-11T03:51:51.789Z,1017.42
2017-03-11T03:52:51.793Z,1017.41
2017-03-11T03:53:51.849Z,1017.46
2017-03-11T03:54:51.853Z,1017.4
2017-03-11T03:55:51.861Z,1017.38
2017-03-11T03:56:51.813Z,1017.41
2017-03-11T03:57:51.817Z,1017.37
2017-03-11T03:58:51.873Z,1017.33
2017-03-11T03:59:51.826Z,1017.35
2017-03-11T04:00:51.831Z,1017.32
2017-03-11T04:01:51.835Z,1017.31
2017-03-11T04:02:51.839Z,1017.32
2017-03-11T04:03:51.845Z,1017.31
2017-03-11T04:04:51.850Z,1017.29
2017-03-11T04:05:51.854Z,1017.3
2017-03-11T04:06:51.858Z,1017.29
2017-03-11T04:07:51.864Z,1017.32
2017-03-11T04:08:51.868Z,1017.29
2017-03-11T04:09:51.872Z,1017.32
2017-03-11T04:10:51.877Z,1017.25
2017-03-11T04:11:51.882Z,1017.3
2017-03-11T04:12:51.886Z,1017.26
2017-03-11T04:13:51.942Z,1017.33
2017-03-11T04:14:51.895Z,1017.29
2017-03-11T04:15:51.899Z,1017.35
2017-03-11T04:16:51.954Z,1017.33
2017-03-11T04:17:51.909Z,1017.35
2017-03-11T04:18:51.964Z,1017.26
2017-03-11T04:19:51.918Z,1017.34
2017-03-11T04:20:51.922Z,1017.3
2017-03-11T04:21:51.927Z,1017.28
2017-03-11T04:22:51.932Z,1017.24
2017-03-11T04:23:51.935Z,1017.24
2017-03-11T04:24:51.941Z,1017.22
2017-03-11T04:25:51.946Z,1017.22
2017-03-11T04:26:51.949Z,1017.22
2017-03-11T04:27:51.953Z,1017.2
2017-03-11T04:28:52.009Z,1017.23
2017-03-11T04:29:51.964Z,1017.2
2017-03-11T04:30:51.968Z,1017.19
2017-03-11T04:31:51.972Z,1017.18
2017-03-11T04:32:52.028Z,1017.25
2017-03-11T04:33:51.982Z,1017.2
2017-03-11T04:34:51.987Z,1017.16
2017-03-11T04:35:51.992Z,1017.18
2017-03-11T04:36:51.996Z,1017.14
2017-03-11T04:37:51.999Z,1017.16
2017-03-11T04:38:52.003Z,1017.13
2017-03-11T04:39:52.009Z,1017.12
2017-03-11T04:40:52.012Z,1017.08
2017-03-11T04:41:52.067Z,1017.03
2017-03-11T04:42:52.073Z,1017.06
2017-03-11T04:43:52.024Z,1017.04
2017-03-11T04:44:52.080Z,1016.99
2017-03-11T04:45:52.035Z,1016.97
2017-03-11T04:46:52.040Z,1017.04
2017-03-11T04:47:52.092Z,1017.05
2017-03-11T04:48:52.098Z,1017.08
2017-03-11T04:49:52.101Z,1017.11
2017-03-11T04:50:52.108Z,1017.06
2017-03-11T04:51:52.063Z,1017.11
2017-03-11T04:52:52.066Z,1017.04
2017-03-11T04:53:52.071Z,1017.03
2017-03-11T04:54:52.074Z,1017.04
2017-03-11T04:55:52.084Z,1017
2017-03-11T04:56:52.085Z,1017.05
2017-03-11T04:57:52.091Z,1017.04
2017-03-11T04:58:52.143Z,1017
2017-03-11T04:59:52.096Z,1017
2017-03-11T05:00:52.104Z,1016.98
2017-03-11T05:01:52.105Z,1017
2017-03-11T05:02:52.112Z,1017.02
2017-03-11T05:03:52.164Z,1017.03
2017-03-11T05:04:52.168Z,1017.02
2017-03-11T05:05:52.124Z,1017.03
2017-03-11T05:06:52.127Z,1017.07
2017-03-11T05:07:52.180Z,1017.03
2017-03-11T05:08:52.135Z,1017.03
2017-03-11T05:09:52.140Z,1017.09
2017-03-11T05:10:52.144Z,1017.06
2017-03-11T05:11:52.148Z,1017.09
2017-03-11T05:12:52.202Z,1017.08
2017-03-11T05:14:52.213Z,1017.07
2017-03-11T05:15:52.165Z,1017.11
2017-03-11T05:16:52.171Z,1017.12
2017-03-11T05:17:52.226Z,1017.08
2017-03-11T05:18:52.178Z,1017.07
2017-03-11T05:19:52.233Z,1017.07
2017-03-11T05:20:52.237Z,1017.06
2017-03-11T05:21:52.191Z,1017.06
2017-03-11T05:22:52.196Z,1017.07
2017-03-11T05:23:52.200Z,1017.05
2017-03-11T05:24:52.205Z,1017.04
2017-03-11T05:25:52.259Z,1017.04
2017-03-11T05:26:52.214Z,1017.04
2017-03-11T05:27:52.218Z,1017.02
2017-03-11T05:28:52.222Z,1016.99
2017-03-11T05:29:52.277Z,1017
2017-03-11T05:30:52.283Z,1017
2017-03-11T05:31:52.287Z,1016.93
2017-03-11T05:32:52.291Z,1016.93
2017-03-11T05:33:52.243Z,1016.87
2017-03-11T05:34:52.249Z,1016.96
2017-03-11T05:35:52.255Z,1016.93
2017-03-11T05:36:52.258Z,1016.98
2017-03-11T05:37:52.263Z,1016.89
2017-03-11T05:38:52.269Z,1016.93
2017-03-11T05:39:52.322Z,1016.91
2017-03-11T05:40:52.277Z,1016.88
2017-03-11T05:41:52.282Z,1016.85
2017-03-11T05:42:52.288Z,1016.86
2017-03-11T05:44:52.299Z,1016.84
2017-03-11T05:45:52.300Z,1016.82
2017-03-11T05:46:52.303Z,1016.84
2017-03-11T05:47:52.357Z,1016.82
2017-03-11T05:48:52.363Z,1016.83
2017-03-11T05:49:52.319Z,1016.83
2017-03-11T05:50:52.321Z,1016.8
2017-03-11T05:51:52.325Z,1016.82
2017-03-11T05:52:52.379Z,1016.81
2017-03-11T05:53:52.385Z,1016.83
2017-03-11T05:54:52.340Z,1016.79
2017-03-11T05:55:52.345Z,1016.8
2017-03-11T05:56:52.348Z,1016.75
2017-03-11T05:57:52.404Z,1016.79
2017-03-11T05:58:52.359Z,1016.76
2017-03-11T05:59:52.411Z,1016.76
2017-03-11T06:00:52.368Z,1016.76
2017-03-11T06:01:52.371Z,1016.72
2017-03-11T06:02:52.375Z,1016.7
2017-03-11T06:03:52.379Z,1016.68
2017-03-11T06:04:52.383Z,1016.69
2017-03-11T06:05:52.387Z,1016.74
2017-03-11T06:06:52.392Z,1016.72
2017-03-11T06:07:52.447Z,1016.7
2017-03-11T06:08:52.452Z,1016.74
2017-03-11T06:09:52.457Z,1016.7
2017-03-11T06:10:52.409Z,1016.7
2017-03-11T06:11:52.415Z,1016.7
2017-03-11T06:12:52.419Z,1016.67
2017-03-11T06:13:52.424Z,1016.71
2017-03-11T06:14:52.428Z,1016.66
2017-03-11T06:15:52.433Z,1016.65
2017-03-11T06:16:52.486Z,1016.69
2017-03-11T06:17:52.492Z,1016.67
2017-03-11T06:18:52.447Z,1016.65
2017-03-11T06:19:52.452Z,1016.67
2017-03-11T06:20:52.754Z,1016.7
2017-03-11T06:21:52.459Z,1016.66
2017-03-11T06:22:52.514Z,1016.69
2017-03-11T06:23:52.517Z,1016.66
2017-03-11T06:24:52.472Z,1016.7
2017-03-11T06:25:52.528Z,1016.66
2017-03-11T06:26:52.532Z,1016.64
2017-03-11T06:27:52.486Z,1016.67
2017-03-11T06:28:52.490Z,1016.67
2017-03-11T06:29:52.493Z,1016.67
2017-03-11T06:30:52.500Z,1016.67
2017-03-11T06:31:52.503Z,1016.62
2017-03-11T06:32:52.560Z,1016.65
2017-03-11T06:33:52.563Z,1016.63
2017-03-11T06:34:52.519Z,1016.63
2017-03-11T06:35:52.523Z,1016.63
2017-03-11T06:36:52.577Z,1016.64
2017-03-11T06:37:52.585Z,1016.62
2017-03-11T06:38:52.585Z,1016.6
2017-03-11T06:39:52.589Z,1016.56
2017-03-11T06:40:52.545Z,1016.58
2017-03-11T06:41:52.600Z,1016.56
2017-03-11T06:42:52.553Z,1016.53
2017-03-11T06:43:52.558Z,1016.54
2017-03-11T06:44:52.564Z,1016.55
2017-03-11T06:45:52.568Z,1016.52
2017-03-11T06:46:52.573Z,1016.55
2017-03-11T06:47:52.577Z,1016.56
2017-03-11T06:48:52.633Z,1016.54
2017-03-11T06:49:52.587Z,1016.55
2017-03-11T06:50:52.641Z,1016.57
2017-03-11T06:51:52.648Z,1016.57
2017-03-11T06:52:52.601Z,1016.58
2017-03-11T06:53:53.607Z,1016.55
2017-03-11T06:54:52.610Z,1016.51
2017-03-11T06:55:52.616Z,1016.52
2017-03-11T06:56:52.620Z,1016.54
2017-03-11T06:57:52.676Z,1016.51
2017-03-11T06:58:52.630Z,1016.51
2017-03-11T06:59:52.636Z,1016.55
2017-03-11T07:00:52.640Z,1016.55
2017-03-11T07:01:52.643Z,1016.56
2017-03-11T07:02:52.651Z,1016.55
2017-03-11T07:03:52.654Z,1016.59
2017-03-11T07:04:52.709Z,1016.58
2017-03-11T07:05:52.715Z,1016.55
2017-03-11T07:06:52.671Z,1016.59
2017-03-11T07:07:52.725Z,1016.57
2017-03-11T07:08:52.730Z,1016.59
2017-03-11T07:09:52.735Z,1016.53
2017-03-11T07:10:52.738Z,1016.6
2017-03-11T07:11:52.691Z,1016.61
2017-03-11T07:12:52.698Z,1016.56
2017-03-11T07:13:52.703Z,1016.55
2017-03-11T07:14:52.706Z,1016.57
2017-03-11T07:15:52.712Z,1016.57
2017-03-11T07:16:52.718Z,1016.58
2017-03-11T07:17:52.724Z,1016.62
2017-03-11T07:18:52.728Z,1016.61
2017-03-11T07:19:52.730Z,1016.63
2017-03-11T07:20:52.737Z,1016.66
2017-03-11T07:21:52.741Z,1016.64
2017-03-11T07:22:52.745Z,1016.65
2017-03-11T07:23:52.751Z,1016.62
2017-03-11T07:24:52.806Z,1016.64
2017-03-11T07:25:52.809Z,1016.67
2017-03-11T07:26:52.764Z,1016.67
2017-03-11T07:27:52.769Z,1016.66
2017-03-11T07:28:52.773Z,1016.69
2017-03-11T07:29:52.779Z,1016.66
2017-03-11T07:30:52.784Z,1016.63
2017-03-11T07:31:52.839Z,1016.6
2017-03-11T07:32:52.845Z,1016.62
2017-03-11T07:33:52.798Z,1016.59
2017-03-11T07:34:52.852Z,1016.57
2017-03-11T07:35:52.806Z,1016.57
2017-03-11T07:36:52.815Z,1016.55
2017-03-11T07:37:52.866Z,1016.53
2017-03-11T07:38:52.820Z,1016.53
2017-03-11T07:39:52.877Z,1016.5
2017-03-11T07:40:52.830Z,1016.46
2017-03-11T07:41:52.885Z,1016.45
2017-03-11T07:42:52.840Z,1016.45
2017-03-11T07:44:52.850Z,1016.49
2017-03-11T07:45:52.903Z,1016.51
2017-03-11T07:46:52.858Z,1016.54
2017-03-11T07:47:52.862Z,1016.56
2017-03-11T07:48:52.867Z,1016.51
2017-03-11T07:49:52.923Z,1016.54
2017-03-11T07:50:52.877Z,1016.52
2017-03-11T07:51:52.881Z,1016.48
2017-03-11T07:52:52.886Z,1016.47
2017-03-11T07:53:52.940Z,1016.5
2017-03-11T07:54:52.945Z,1016.5
2017-03-11T07:55:52.951Z,1016.51
2017-03-11T07:56:52.904Z,1016.55
2017-03-11T07:57:52.960Z,1016.57
2017-03-11T07:58:52.915Z,1016.59
2017-03-11T07:59:52.920Z,1016.61
2017-03-11T08:00:52.977Z,1016.55
2017-03-11T08:01:52.928Z,1016.6
2017-03-11T08:02:52.934Z,1016.62
2017-03-11T08:03:52.940Z,1016.61
2017-03-11T08:04:52.943Z,1016.62
2017-03-11T08:05:53.000Z,1016.64
2017-03-11T08:06:53.005Z,1016.63
2017-03-11T08:07:53.012Z,1016.62
2017-03-11T08:08:53.014Z,1016.61
2017-03-11T08:09:53.021Z,1016.6
2017-03-11T08:10:52.978Z,1016.64
2017-03-11T08:11:52.982Z,1016.67
2017-03-11T08:12:53.039Z,1016.67
2017-03-11T08:13:53.044Z,1016.8
2017-03-11T08:14:53.048Z,1017.04
2017-03-11T08:15:53.054Z,1017.24
2017-03-11T08:16:53.011Z,1017.29
2017-03-11T08:17:53.016Z,1017.34
2017-03-11T08:18:53.074Z,1017.32
2017-03-11T08:19:53.031Z,1017.36
2017-03-11T08:20:53.339Z,1017.34
2017-03-11T08:21:53.046Z,1017.38
2017-03-11T08:22:53.104Z,1017.35
2017-03-11T08:23:53.063Z,1017.32
2017-03-11T08:24:53.121Z,1017.32
2017-03-11T08:25:53.079Z,1017.32
2017-03-11T08:26:53.138Z,1017.32
2017-03-11T08:27:53.145Z,1017.34
2017-03-11T08:28:53.153Z,1017.34
2017-03-11T08:29:53.112Z,1017.29
2017-03-11T08:30:53.122Z,1017.22
2017-03-11T08:31:53.179Z,1017.29
2017-03-11T08:32:53.138Z,1017.28
2017-03-11T08:33:53.146Z,1017.25
2017-03-11T08:34:53.457Z,1017.21
2017-03-11T08:35:53.167Z,1017.22
2017-03-11T08:36:53.225Z,1017.23
2017-03-11T08:37:53.236Z,1017.16
2017-03-11T08:38:53.271Z,1017.27
2017-03-11T08:39:53.203Z,1017.28
2017-03-11T08:40:53.212Z,1017.34
2017-03-11T08:41:53.273Z,1017.31
2017-03-11T08:42:53.233Z,1017.22
2017-03-11T08:43:53.292Z,1017.19
2017-03-11T08:44:53.302Z,1017.33
2017-03-11T08:45:53.262Z,1017.31
2017-03-11T08:46:53.272Z,1017.32
2017-03-11T08:47:53.282Z,1017.26
2017-03-11T08:48:53.291Z,1017.31
2017-03-11T08:49:53.300Z,1017.16
2017-03-11T08:50:53.309Z,1017.09
2017-03-11T08:51:53.319Z,1017.19
2017-03-11T08:52:53.329Z,1017.21
2017-03-11T08:53:53.389Z,1017.07
2017-03-11T08:54:53.347Z,1017.07
2017-03-11T08:55:53.358Z,1017.17
2017-03-11T08:56:53.367Z,1017.2
2017-03-11T08:57:53.377Z,1017.08
2017-03-11T08:58:53.438Z,1017.02
2017-03-11T08:59:53.396Z,1017.1
2017-03-11T09:00:53.406Z,1017.13
2017-03-11T09:01:53.416Z,1017.24
2017-03-11T09:02:53.426Z,1017.25
2017-03-11T09:03:53.435Z,1017.25
2017-03-11T09:04:53.444Z,1017.18
2017-03-11T09:05:53.455Z,1017.18
2017-03-11T09:06:53.467Z,1017.07
2017-03-11T09:07:53.478Z,1017.1
2017-03-11T09:08:53.485Z,1017.12
2017-03-11T09:09:53.496Z,1017.19
2017-03-11T09:10:53.506Z,1017.2
2017-03-11T09:11:53.564Z,1017.2
2017-03-11T09:12:53.524Z,1017.26
2017-03-11T09:13:53.538Z,1017.22
2017-03-11T09:14:53.595Z,1017.29
2017-03-11T09:15:53.555Z,1017.27
2017-03-11T09:16:53.566Z,1017.23
2017-03-11T09:17:53.821Z,1017.28
2017-03-11T09:18:53.590Z,1017.29
2017-03-11T09:19:53.647Z,1017.27
2017-03-11T09:20:53.659Z,1017.3
2017-03-11T09:21:53.619Z,1017.32
2017-03-11T09:22:53.628Z,1017.27
2017-03-11T09:23:53.639Z,1017.27
2017-03-11T09:24:53.648Z,1017.24
2017-03-11T09:25:53.659Z,1017.21
2017-03-11T09:26:53.667Z,1017.1
2017-03-11T09:27:53.678Z,1016.96
2017-03-11T09:28:53.687Z,1016.75
2017-03-11T09:29:53.695Z,1016.71
2017-03-11T09:30:53.705Z,1016.62
2017-03-11T09:31:53.713Z,1016.6
2017-03-11T09:32:53.770Z,1016.59
2017-03-11T09:33:53.729Z,1016.58
2017-03-11T09:34:53.738Z,1016.56
2017-03-11T09:35:53.753Z,1016.55
2017-03-11T09:36:53.756Z,1016.54
2017-03-11T09:37:53.841Z,1016.52
2017-03-11T09:38:53.813Z,1016.53
2017-03-11T09:39:53.855Z,1016.52
2017-03-11T09:40:53.786Z,1016.5
2017-03-11T09:41:53.793Z,1016.47
2017-03-11T09:42:53.802Z,1016.46
2017-03-11T09:43:53.860Z,1016.45
2017-03-11T09:44:53.817Z,1016.46
2017-03-11T09:45:53.875Z,1016.43
2017-03-11T09:46:53.833Z,1016.45
2017-03-11T09:47:53.891Z,1016.46
2017-03-11T09:48:53.897Z,1016.47
2017-03-11T09:49:53.906Z,1016.46
2017-03-11T09:50:53.913Z,1016.44
2017-03-11T09:51:53.870Z,1016.45
2017-03-11T09:52:53.928Z,1016.38
2017-03-11T09:53:53.885Z,1016.4
2017-03-11T09:54:53.891Z,1016.41
2017-03-11T09:55:53.950Z,1016.4
2017-03-11T09:56:53.907Z,1016.39
2017-03-11T09:57:53.914Z,1016.33
2017-03-11T09:58:53.921Z,1016.3
2017-03-11T09:59:53.976Z,1016.3
2017-03-11T10:00:53.934Z,1016.24
2017-03-11T10:01:53.989Z,1016.23
2017-03-11T10:02:53.998Z,1016.22
2017-03-11T10:03:54.004Z,1016.27
2017-03-11T10:04:53.964Z,1016.26
2017-03-11T10:05:53.970Z,1016.24
2017-03-11T10:06:53.975Z,1016.28
2017-03-11T10:07:53.982Z,1016.27
2017-03-11T10:08:53.988Z,1016.24
2017-03-11T10:09:53.996Z,1016.25
2017-03-11T10:10:54.052Z,1016.2
2017-03-11T10:11:54.008Z,1016.15
2017-03-11T10:12:54.015Z,1016.15
2017-03-11T10:13:54.024Z,1016.16
2017-03-11T10:14:54.029Z,1016.18
2017-03-11T10:15:54.035Z,1016.17
2017-03-11T10:16:54.041Z,1016.17
2017-03-11T10:17:54.098Z,1016.16
2017-03-11T10:18:54.054Z,1016.14
2017-03-11T10:19:54.061Z,1016.11
2017-03-11T10:20:54.070Z,1016.14
2017-03-11T10:21:54.074Z,1016.12
2017-03-11T10:22:54.130Z,1016.13
2017-03-11T10:23:54.087Z,1016.11
2017-03-11T10:24:54.093Z,1016.13
2017-03-11T10:25:54.150Z,1016.11
2017-03-11T10:26:54.105Z,1016.14
2017-03-11T10:27:54.113Z,1016.12
2017-03-11T10:28:54.119Z,1016.11
2017-03-11T10:29:54.130Z,1016.08
2017-03-11T10:30:54.180Z,1016.06
2017-03-11T10:31:54.138Z,1016.06
2017-03-11T10:32:54.145Z,1016.07
2017-03-11T10:33:54.198Z,1016.08
2017-03-11T10:34:54.157Z,1016.1
2017-03-11T10:35:54.212Z,1016.05
2017-03-11T10:36:54.168Z,1016.06
2017-03-11T10:37:54.225Z,1016.04
2017-03-11T10:38:54.181Z,1016.03
2017-03-11T10:39:54.188Z,1016.04
2017-03-11T10:40:54.197Z,1016.03
2017-03-11T10:41:54.200Z,1016.02
2017-03-11T10:42:54.207Z,1016.01
2017-03-11T10:44:54.221Z,1016.04
2017-03-11T10:45:54.227Z,1015.93
2017-03-11T10:46:54.284Z,1015.88
2017-03-11T10:47:54.287Z,1015.91
2017-03-11T10:48:54.295Z,1015.89
2017-03-11T10:49:54.301Z,1015.9
2017-03-11T10:50:54.305Z,1015.94
2017-03-11T10:51:54.263Z,1015.94
2017-03-11T10:52:54.296Z,1015.91
2017-03-11T10:53:54.277Z,1015.89
2017-03-11T10:54:54.281Z,1015.9
2017-03-11T10:55:54.338Z,1015.88
2017-03-11T10:56:54.295Z,1015.81
2017-03-11T10:57:54.299Z,1015.82
2017-03-11T10:58:54.307Z,1015.86
2017-03-11T10:59:54.313Z,1015.85
2017-03-11T11:00:54.319Z,1015.84
2017-03-11T11:01:54.325Z,1015.81
2017-03-11T11:02:54.382Z,1015.81
2017-03-11T11:03:54.337Z,1015.8
2017-03-11T11:04:54.343Z,1015.82
2017-03-11T11:05:54.398Z,1015.78
2017-03-11T11:06:54.356Z,1015.78
2017-03-11T11:07:54.363Z,1015.78
2017-03-11T11:08:54.420Z,1015.79
2017-03-11T11:09:54.372Z,1015.76
2017-03-11T11:10:54.378Z,1015.72
2017-03-11T11:11:54.387Z,1015.72
2017-03-11T11:12:54.392Z,1015.69
2017-03-11T11:14:54.456Z,1015.7
2017-03-11T11:15:54.459Z,1015.7
2017-03-11T11:16:54.465Z,1015.7
2017-03-11T11:17:54.421Z,1015.68
2017-03-11T11:18:54.477Z,1015.65
2017-03-11T11:19:54.432Z,1015.72
2017-03-11T11:20:54.438Z,1015.65
2017-03-11T11:21:54.446Z,1015.65
2017-03-11T11:22:54.450Z,1015.63
2017-03-11T11:23:54.506Z,1015.66
2017-03-11T11:24:54.462Z,1015.63
2017-03-11T11:25:54.517Z,1015.61
2017-03-11T11:26:54.473Z,1015.59
2017-03-11T11:27:54.481Z,1015.55
2017-03-11T11:28:54.486Z,1015.55
2017-03-11T11:29:54.491Z,1015.53
2017-03-11T11:30:54.498Z,1015.54
2017-03-11T11:31:54.502Z,1015.51
2017-03-11T11:32:54.507Z,1015.5
2017-03-11T11:33:54.515Z,1015.52
2017-03-11T11:34:54.552Z,1015.49
2017-03-11T11:35:54.577Z,1015.45
2017-03-11T11:36:54.581Z,1015.46
2017-03-11T11:37:54.587Z,1015.43
2017-03-11T11:38:54.544Z,1015.4
2017-03-11T11:39:54.549Z,1015.38
2017-03-11T11:40:54.605Z,1015.35
2017-03-11T11:41:54.609Z,1015.34
2017-03-11T11:42:54.567Z,1015.35
2017-03-11T11:43:54.571Z,1015.32
2017-03-11T11:44:54.576Z,1015.33
2017-03-11T11:45:54.580Z,1015.34
2017-03-11T11:46:54.586Z,1015.32
2017-03-11T11:47:54.592Z,1015.33
2017-03-11T11:48:54.648Z,1015.3
2017-03-11T11:49:54.603Z,1015.34
2017-03-11T11:50:54.608Z,1015.28
2017-03-11T11:51:54.662Z,1015.32
2017-03-11T11:52:54.617Z,1015.28
2017-03-11T11:53:54.622Z,1015.28
2017-03-11T11:54:54.629Z,1015.26
2017-03-11T11:55:54.632Z,1015.21
2017-03-11T11:56:54.687Z,1015.24
2017-03-11T11:57:54.642Z,1015.23
2017-03-11T11:58:54.648Z,1015.22
2017-03-11T11:59:54.703Z,1015.18
2017-03-11T12:00:54.657Z,1015.19
2017-03-11T12:01:54.663Z,1015.2
2017-03-11T12:02:54.667Z,1015.16
2017-03-11T12:03:54.673Z,1015.17
2017-03-11T12:04:54.728Z,1015.12
2017-03-11T12:05:54.733Z,1015.13
2017-03-11T12:06:54.739Z,1015.1
2017-03-11T12:07:54.693Z,1015.09
2017-03-11T12:08:54.750Z,1015.07
2017-03-11T12:09:54.704Z,1015.06
2017-03-11T12:10:54.759Z,1015
2017-03-11T12:11:54.767Z,1015.05
2017-03-11T12:12:54.772Z,1015.05
2017-03-11T12:13:57.028Z,1015.03